Ardsley, Pennsylvania
Current Conditions -  °F | °C
As of 9:35 AM on Friday 24 Oct 2014 (Local Time) from KLOM Reporting Station
Overcast Overcast  
Wind Chill: 59°   Ceiling: 3600
Heat Index: 59°   Visibility: 10mi
Dew Point: 45°   Wind: 8mph
Humidity: 59%   Direction: 340°NNW
Pressure: 29.87"   Gusts: 16mph
Location:  40.1012°N, 75.1722°W
Report Text: KLOM 241335Z AUTO 34007G14KT 310V010 10SM OVC036 15/07 A2987 RMK AO1
Loading
Personal Weather Stations






























Interactive Weather Map New forecast layout! Learn more

10-Day Weather Forecast

Advertisements
Track Severe Weather on mobile